Richard L Becker — WCY8957 — position and weather

sailwx.info

Track history (hours):
 
Tides and Currents Weather Stations Pressure Air Temp Water Temp Dewpoint Dewpoint Depression Visibility Wind Speed Wind Dir Waves Ship Positions

Richard L Becker

Owner: VESSEL RECOVERY INC, Pompano Beach, FL. More information available from US FCC via Universal Licensing System and Coast Guard Vessel Documentation Center.

Last reported at 2018-Jun-22 19:59 UTC. Time now 2018-Jun-22 20:24 UTC.
Position N 26°03' W 080°07'.

Length 27 m; draft 3 m.

Type: Other ship. MMSI: 367390470.

Date/timePositionNaut miles runAvg speedWind from/ knotsBaromVisibWave heightAir tempDewpointWater temp
2018-Jun-22 19:59N 26°03' W 080°07'0 0.0
2018-Jun-22 19:29N 26°03' W 080°07'1 3.1
2018-Jun-22 19:00N 26°05' W 080°07'1 1.5
2018-Jun-22 18:30N 26°06' W 080°07'0 0.0
2018-Jun-22 18:00N 26°06' W 080°07'3 5.6
2018-Jun-22 17:30N 26°03' W 080°05'0 0.4
2018-Jun-22 17:00N 26°03' W 080°05'1 1.2
2018-Jun-22 16:30N 26°03' W 080°05'0 0.6
2018-Jun-22 16:00N 26°03' W 080°05'1 1.6
2018-Jun-22 15:30N 26°03' W 080°06'1 1.2
2018-Jun-22 15:00N 26°03' W 080°05'1 2.0
2018-Jun-22 14:30N 26°02' W 080°05'1 2.0
2018-Jun-22 13:59N 26°03' W 080°05'1 1.1
2018-Jun-22 13:30N 26°03' W 080°06'1 1.4
2018-Jun-22 12:56N 26°03' W 080°05'3 6.7
2018-Jun-22 12:30N 26°06' W 080°06'0 0.7
2018-Jun-22 11:57N 26°06' W 080°07'0 0.0
2018-Jun-22 11:30N 26°06' W 080°07'0 0.0
2018-Jun-22 11:00N 26°06' W 080°07'0 0.0
2018-Jun-22 10:30N 26°06' W 080°07'0 0.0
2018-Jun-22 10:00N 26°06' W 080°07'0 0.0
2018-Jun-22 09:30N 26°06' W 080°07'0 0.0
2018-Jun-22 09:00N 26°06' W 080°07'0 0.0
2018-Jun-22 08:18N 26°06' W 080°07'0 0.0
2018-Jun-22 07:51N 26°06' W 080°07'0 0.0
2018-Jun-22 07:30N 26°06' W 080°07'0 0.0
2018-Jun-22 07:00N 26°06' W 080°07'0 0.0
2018-Jun-22 06:21N 26°06' W 080°07'0 0.0
2018-Jun-22 05:51N 26°06' W 080°07'0 0.0
2018-Jun-22 05:21N 26°06' W 080°07'0 0.0
2018-Jun-22 04:51N 26°06' W 080°07'0 0.0
2018-Jun-22 04:24N 26°06' W 080°07'0 0.0
2018-Jun-22 03:54N 26°06' W 080°07'0 0.0
2018-Jun-22 03:24N 26°06' W 080°07'0 0.0
2018-Jun-22 02:54N 26°06' W 080°07'0 0.0
2018-Jun-22 02:24N 26°06' W 080°07'0 0.0
2018-Jun-22 01:51N 26°06' W 080°07'0 0.0
2018-Jun-22 01:27N 26°06' W 080°07'0 0.0
2018-Jun-22 00:57N 26°06' W 080°07'0 0.0
2018-Jun-22 00:27N 26°06' W 080°07'0 0.0
2018-Jun-21 23:57N 26°06' W 080°07'0 0.0
2018-Jun-21 23:27N 26°06' W 080°07'0 0.0
2018-Jun-21 23:00N 26°06' W 080°07'0 0.0
2018-Jun-21 22:30N 26°06' W 080°07'0 0.0
2018-Jun-21 21:54N 26°06' W 080°07'0 0.0
2018-Jun-21 21:30N 26°06' W 080°07'0 0.0
2018-Jun-21 20:57N 26°06' W 080°07'0 0.0
2018-Jun-21 20:30N 26°06' W 080°07'0 0.0
2018-Jun-21 19:57N 26°06' W 080°07'2 3.9
2018-Jun-21 19:31N 26°04' W 080°05'1 2.6
2018-Jun-21 19:01N 26°03' W 080°05'0 0.9
2018-Jun-21 18:30N 26°03' W 080°05'0 0.3
2018-Jun-21 18:00N 26°03' W 080°05'0 0.9
2018-Jun-21 17:30N 26°03' W 080°05'0 0.9
2018-Jun-21 17:00N 26°03' W 080°05'0 0.7
2018-Jun-21 16:30N 26°03' W 080°05'0 0.8
2018-Jun-21 16:00N 26°03' W 080°05'0 0.3
2018-Jun-21 15:30N 26°03' W 080°05'0 0.9
2018-Jun-21 15:00N 26°04' W 080°04'0 0.5
2018-Jun-21 14:30N 26°03' W 080°04'1 1.9
2018-Jun-21 14:00N 26°03' W 080°05'0 0.4
2018-Jun-21 13:30N 26°03' W 080°05'0 0.3
2018-Jun-21 13:00N 26°03' W 080°05'0 0.2
2018-Jun-21 12:30N 26°03' W 080°05'3 4.5
2018-Jun-21 11:49N 26°06' W 080°07'0 0.0
2018-Jun-21 11:26N 26°06' W 080°07'0 0.0
2018-Jun-21 10:55N 26°06' W 080°07'0 0.0
2018-Jun-21 10:25N 26°06' W 080°07'0 0.0
2018-Jun-21 09:56N 26°06' W 080°07'0 0.0
2018-Jun-21 09:22N 26°06' W 080°07'0 0.0
2018-Jun-21 08:52N 26°06' W 080°07'0 0.0
2018-Jun-21 08:29N 26°06' W 080°07'0 0.0
2018-Jun-21 07:58N 26°06' W 080°07'0 0.0
2018-Jun-21 07:28N 26°06' W 080°07'0 0.0
2018-Jun-21 06:55N 26°06' W 080°07'0 0.0
2018-Jun-21 06:28N 26°06' W 080°07'0 0.0
2018-Jun-21 05:55N 26°06' W 080°07'0 0.0
2018-Jun-21 05:28N 26°06' W 080°07'0 0.0
2018-Jun-21 04:58N 26°06' W 080°07'0 0.0
2018-Jun-21 04:29N 26°06' W 080°07'0 0.0
2018-Jun-21 03:58N 26°06' W 080°07'0 0.0
2018-Jun-21 03:29N 26°06' W 080°07'0 0.0
2018-Jun-21 02:58N 26°06' W 080°07'0 0.0
2018-Jun-21 02:28N 26°06' W 080°07'0 0.0
2018-Jun-21 01:49N 26°06' W 080°07'0 0.0
2018-Jun-21 01:19N 26°06' W 080°07'0 0.0
2018-Jun-21 00:58N 26°06' W 080°07'0 0.0
2018-Jun-21 00:19N 26°06' W 080°07'0 0.0
2018-Jun-20 23:46N 26°06' W 080°07'0 0.0
2018-Jun-20 23:23N 26°06' W 080°07'0 0.0
2018-Jun-20 22:52N 26°06' W 080°07'0 0.0
2018-Jun-20 22:22N 26°06' W 080°07'0 0.0
2018-Jun-20 21:52N 26°06' W 080°07'0 0.0
2018-Jun-20 21:22N 26°06' W 080°07'0 0.0
2018-Jun-20 20:52N 26°06' W 080°07'0 0.0
2018-Jun-20 20:22N 26°06' W 080°07'0 0.0
2018-Jun-20 19:55N 26°06' W 080°07'0 0.0
2018-Jun-20 19:22N 26°06' W 080°07'0 0.0
2018-Jun-20 18:52N 26°06' W 080°07'0 0.0
2018-Jun-20 18:28N 26°06' W 080°07'1 1.9
2018-Jun-20 18:00N 26°05' W 080°06'3 5.9
2018-Jun-20 17:31N 26°03' W 080°06'1 1.0
2018-Jun-20 17:00N 26°03' W 080°05'1 1.3
2018-Jun-20 16:31N 26°04' W 080°05'1 2.1
2018-Jun-20 16:00N 26°03' W 080°05'1 1.2
2018-Jun-20 15:31N 26°02' W 080°05'0 0.8
2018-Jun-20 15:00N 26°02' W 080°05'1 1.4
2018-Jun-20 14:30N 26°03' W 080°05'1 1.2
2018-Jun-20 14:00N 26°04' W 080°05'0 0.7
2018-Jun-20 13:30N 26°03' W 080°05'0 0.5
2018-Jun-20 13:00N 26°03' W 080°05'2 3.7
2018-Jun-20 12:30N 26°05' W 080°05'2 3.4
2018-Jun-20 11:58N 26°06' W 080°07'0 0.0
2018-Jun-20 11:30N 26°06' W 080°07'0 0.0
2018-Jun-20 11:00N 26°06' W 080°07'0 0.0
2018-Jun-20 10:30N 26°06' W 080°07'0 0.0
2018-Jun-20 10:00N 26°06' W 080°07'0 0.0
2018-Jun-20 09:30N 26°06' W 080°07'0 0.0
2018-Jun-20 08:59N 26°06' W 080°07'0 0.0
2018-Jun-20 08:30N 26°06' W 080°07'0 0.0
2018-Jun-20 08:00N 26°06' W 080°07'0 0.0
2018-Jun-20 07:30N 26°06' W 080°07'0 0.0
2018-Jun-20 07:00N 26°06' W 080°07'0 0.0
2018-Jun-20 06:30N 26°06' W 080°07'0 0.0
2018-Jun-20 06:00N 26°06' W 080°07'0 0.0
2018-Jun-20 05:30N 26°06' W 080°07'0 0.0
2018-Jun-20 05:00N 26°06' W 080°07'0 0.0
2018-Jun-20 04:30N 26°06' W 080°07'0 0.0
2018-Jun-20 04:00N 26°06' W 080°07'0 0.0
2018-Jun-20 03:30N 26°06' W 080°07'0 0.0
2018-Jun-20 02:59N 26°06' W 080°07'0 0.0
2018-Jun-20 02:30N 26°06' W 080°07'0 0.0
2018-Jun-20 02:00N 26°06' W 080°07'0 0.0
2018-Jun-20 01:30N 26°06' W 080°07'0 0.0
2018-Jun-20 01:00N 26°06' W 080°07'0 0.0
2018-Jun-20 00:30N 26°06' W 080°07'0 0.0
2018-Jun-20 00:00N 26°06' W 080°07'0 0.0
2018-Jun-19 23:30N 26°06' W 080°07'0 0.0
2018-Jun-19 23:00N 26°06' W 080°07'0 0.0
2018-Jun-19 22:29N 26°06' W 080°07'0 0.0
2018-Jun-19 22:00N 26°06' W 080°07'0 0.0
2018-Jun-19 21:28N 26°06' W 080°07'0 0.0
2018-Jun-19 21:00N 26°06' W 080°07'0 0.0
2018-Jun-19 20:30N 26°06' W 080°07'2 4.0
2018-Jun-19 20:00N 26°04' W 080°05'1 2.4
2018-Jun-19 19:30N 26°03' W 080°05'1 1.3
2018-Jun-19 19:00N 26°03' W 080°05'2 3.2
2018-Jun-19 18:31N 26°02' W 080°05'1 1.6
2018-Jun-19 18:00N 26°03' W 080°05'1 1.6
2018-Jun-19 17:31N 26°04' W 080°05'1 1.8
2018-Jun-19 16:59N 26°03' W 080°05'1 1.1
2018-Jun-19 16:30N 26°02' W 080°05'1 1.5
2018-Jun-19 16:00N 26°03' W 080°05'0 0.1
2018-Jun-19 15:31N 26°03' W 080°05'0 0.1
2018-Jun-19 14:59N 26°03' W 080°05'0 0.3
2018-Jun-19 14:30N 26°03' W 080°05'0 0.3
2018-Jun-19 13:59N 26°03' W 080°05'0 0.2
2018-Jun-19 13:30N 26°03' W 080°05'0 0.5
2018-Jun-19 13:00N 26°03' W 080°05'1 2.9
2018-Jun-19 12:30N 26°04' W 080°05'2 3.8
2018-Jun-19 12:00N 26°06' W 080°07'0 0.0
2018-Jun-19 11:21N 26°06' W 080°07'0 0.0
2018-Jun-19 11:00N 26°06' W 080°07'0 0.0
2018-Jun-19 10:30N 26°06' W 080°07'0 0.0
2018-Jun-19 09:51N 26°06' W 080°07'0 0.0
2018-Jun-19 09:21N 26°06' W 080°07'0 0.0
2018-Jun-19 08:54N 26°06' W 080°07'0 0.0
2018-Jun-19 08:24N 26°06' W 080°07'0 0.0
2018-Jun-19 07:54N 26°06' W 080°07'0 0.0
2018-Jun-19 07:24N 26°06' W 080°07'0 0.0
2018-Jun-19 06:54N 26°06' W 080°07'0 0.0
2018-Jun-19 06:06N 26°06' W 080°07'0 0.0
2018-Jun-19 05:51N 26°06' W 080°07'0 0.0
2018-Jun-19 05:27N 26°06' W 080°07'0 0.0
2018-Jun-19 04:57N 26°06' W 080°07'0 0.0
2018-Jun-19 04:27N 26°06' W 080°07'0 0.0
2018-Jun-19 03:54N 26°06' W 080°07'0 0.0
2018-Jun-19 03:24N 26°06' W 080°07'0 0.0
2018-Jun-19 02:57N 26°06' W 080°07'0 0.0
2018-Jun-19 02:27N 26°06' W 080°07'0 0.0
2018-Jun-19 02:00N 26°06' W 080°07'0 0.0
2018-Jun-19 01:30N 26°06' W 080°07'0 0.0
2018-Jun-19 01:00N 26°06' W 080°07'0 0.0
2018-Jun-19 00:30N 26°06' W 080°07'0 0.0
2018-Jun-19 00:00N 26°06' W 080°07'0 0.0
2018-Jun-18 23:27N 26°06' W 080°07'0 0.0
2018-Jun-18 23:00N 26°06' W 080°07'0 0.0
2018-Jun-18 22:30N 26°06' W 080°07'0 0.0
2018-Jun-18 22:00N 26°06' W 080°07'0 0.0
2018-Jun-18 21:30N 26°06' W 080°07'0 0.0
2018-Jun-18 21:00N 26°06' W 080°07'0 0.0
2018-Jun-18 20:30N 26°06' W 080°07'0 0.0
2018-Jun-18 19:48N 26°06' W 080°07'0 0.0
2018-Jun-18 19:30N 26°06' W 080°07'0 0.0
2018-Jun-18 18:51N 26°06' W 080°07'0 0.0
2018-Jun-18 18:21N 26°06' W 080°07'0 0.0
2018-Jun-18 17:51N 26°06' W 080°07'0 0.0
2018-Jun-18 17:24N 26°06' W 080°07'0 0.0
2018-Jun-18 16:54N 26°06' W 080°07'0 0.0
2018-Jun-18 16:24N 26°06' W 080°07'0 0.0
2018-Jun-18 15:54N 26°06' W 080°07'0 0.0
2018-Jun-18 15:27N 26°06' W 080°07'0 0.0
2018-Jun-18 14:57N 26°06' W 080°07'0 0.0
2018-Jun-18 14:27N 26°06' W 080°07'0 0.0
2018-Jun-18 13:54N 26°06' W 080°07'0 0.0
2018-Jun-18 13:27N 26°06' W 080°07'0 0.0
2018-Jun-18 12:57N 26°06' W 080°07'0 0.0
2018-Jun-18 12:27N 26°06' W 080°07'0 0.0
2018-Jun-18 11:57N 26°06' W 080°07'0 0.0
2018-Jun-18 11:24N 26°06' W 080°07'0 0.0
2018-Jun-18 11:00N 26°06' W 080°07'0 0.0
2018-Jun-18 10:30N 26°06' W 080°07'0 0.0
2018-Jun-18 10:00N 26°06' W 080°07'0 0.0
2018-Jun-18 09:30N 26°06' W 080°07'0 0.0
2018-Jun-18 08:45N 26°06' W 080°07'0 0.3
2018-Jun-18 08:31N 26°06' W 080°07'2 3.6
2018-Jun-18 07:53N 26°03' W 080°07'0 0.0
2018-Jun-18 07:23N 26°03' W 080°07'0 0.0
2018-Jun-18 06:53N 26°03' W 080°07'0 0.0
2018-Jun-18 06:20N 26°03' W 080°07'0 0.0
2018-Jun-18 05:53N 26°03' W 080°07'0 0.0
2018-Jun-18 05:26N 26°03' W 080°07'0 0.0
2018-Jun-18 04:53N 26°03' W 080°07'0 0.0
2018-Jun-18 04:26N 26°03' W 080°07'0 0.0
2018-Jun-18 03:56N 26°03' W 080°07'0 0.0
2018-Jun-18 03:26N 26°03' W 080°07'0 0.0
2018-Jun-18 02:53N 26°03' W 080°07'0 0.0
2018-Jun-18 02:26N 26°03' W 080°07'0 0.0
2018-Jun-18 01:44N 26°03' W 080°07'0 0.0
2018-Jun-18 01:29N 26°03' W 080°07'0 0.0
2018-Jun-18 00:59N 26°03' W 080°07'0 0.0
2018-Jun-18 00:29N 26°03' W 080°07'0 0.0
2018-Jun-17 23:59N 26°03' W 080°07'0 0.0
2018-Jun-17 23:29N 26°03' W 080°07'0 0.0
2018-Jun-17 22:59N 26°03' W 080°07'0 0.0
2018-Jun-17 22:29N 26°03' W 080°07'0 0.0
2018-Jun-17 21:59N 26°03' W 080°07'0 0.0
2018-Jun-17 21:29N 26°03' W 080°07'0 0.0
2018-Jun-17 20:59N 26°03' W 080°07'0 0.0
2018-Jun-17 20:29N 26°03' W 080°07'0 0.0
2018-Jun-17 19:50N 26°03' W 080°07'0 0.0
2018-Jun-17 19:29N 26°03' W 080°07'0 0.0
2018-Jun-17 18:59N 26°03' W 080°07'0 0.0
2018-Jun-17 18:20N 26°03' W 080°07'0 0.0
2018-Jun-17 17:59N 26°03' W 080°07'0 0.0
2018-Jun-17 17:20N 26°03' W 080°07'0 0.0
2018-Jun-17 16:53N 26°03' W 080°07'0 0.0
2018-Jun-17 16:23N 26°03' W 080°07'0 0.0
2018-Jun-17 15:53N 26°03' W 080°07'0 0.0
2018-Jun-17 15:23N 26°03' W 080°07'0 0.0
2018-Jun-17 14:53N 26°03' W 080°07'0 0.0
2018-Jun-17 14:23N 26°03' W 080°07'0 0.0
2018-Jun-17 13:56N 26°03' W 080°07'0 0.0
2018-Jun-17 13:26N 26°03' W 080°07'0 0.0
2018-Jun-17 12:56N 26°03' W 080°07'0 0.0
2018-Jun-17 12:23N 26°03' W 080°07'0 0.0
2018-Jun-17 11:56N 26°03' W 080°07'0 0.0
2018-Jun-17 11:26N 26°03' W 080°07'0 0.0
2018-Jun-17 10:56N 26°03' W 080°07'0 0.0
2018-Jun-17 10:29N 26°03' W 080°07'0 0.0
2018-Jun-17 09:59N 26°03' W 080°07'0 0.0
2018-Jun-17 09:26N 26°03' W 080°07'0 0.0
2018-Jun-17 08:59N 26°03' W 080°07'0 0.0
2018-Jun-17 08:29N 26°03' W 080°07'0 0.0
2018-Jun-17 07:56N 26°03' W 080°07'0 0.0
2018-Jun-17 07:29N 26°03' W 080°07'0 0.0
2018-Jun-17 06:59N 26°03' W 080°07'0 0.0
2018-Jun-17 06:29N 26°03' W 080°07'0 0.0
2018-Jun-17 05:59N 26°03' W 080°07'0 0.0
2018-Jun-17 05:29N 26°03' W 080°07'0 0.0
2018-Jun-17 04:59N 26°03' W 080°07'0 0.0
2018-Jun-17 04:29N 26°03' W 080°07'0 0.0
2018-Jun-17 03:59N 26°03' W 080°07'0 0.0
2018-Jun-17 03:29N 26°03' W 080°07'0 0.0
2018-Jun-17 02:59N 26°03' W 080°07'0 0.0
2018-Jun-17 02:20N 26°03' W 080°07'0 0.0
2018-Jun-17 01:50N 26°03' W 080°07'0 0.0
2018-Jun-17 01:23N 26°03' W 080°07'0 0.0
2018-Jun-17 00:53N 26°03' W 080°07'0 0.0
2018-Jun-17 00:23N 26°03' W 080°07'0 0.0
2018-Jun-16 23:53N 26°03' W 080°07'0 0.0
2018-Jun-16 23:23N 26°03' W 080°07'0 0.0
2018-Jun-16 22:53N 26°03' W 080°07'0 0.0
2018-Jun-16 22:26N 26°03' W 080°07'0 0.0
2018-Jun-16 21:56N 26°03' W 080°07'0 0.0
2018-Jun-16 21:26N 26°03' W 080°07'0 0.0
2018-Jun-16 20:56N 26°03' W 080°07'0 0.0
2018-Jun-16 20:26N 26°03' W 080°07'0 0.0
2018-Jun-16 19:56N 26°03' W 080°07'0 0.0
2018-Jun-16 19:29N 26°03' W 080°07'0 0.0
2018-Jun-16 18:59N 26°03' W 080°07'0 0.0
2018-Jun-16 18:29N 26°03' W 080°07'0 0.0
2018-Jun-16 17:59N 26°03' W 080°07'0 0.0
2018-Jun-16 17:29N 26°03' W 080°07'0 0.0
2018-Jun-16 16:56N 26°03' W 080°07'0 0.0
2018-Jun-16 16:29N 26°03' W 080°07'0 0.0
2018-Jun-16 15:59N 26°03' W 080°07'0 0.0
2018-Jun-16 15:29N 26°03' W 080°07'0 0.0
2018-Jun-16 14:59N 26°03' W 080°07'0 0.0
2018-Jun-16 14:29N 26°03' W 080°07'0 0.0
2018-Jun-16 13:59N 26°03' W 080°07'0 0.0
2018-Jun-16 13:29N 26°03' W 080°07'0 0.0
2018-Jun-16 12:59N 26°03' W 080°07'0 0.0
2018-Jun-16 12:20N 26°03' W 080°07'0 0.0
2018-Jun-16 11:50N 26°03' W 080°07'0 0.0
2018-Jun-16 11:20N 26°03' W 080°07'0 0.0
2018-Jun-16 10:53N 26°03' W 080°07'0 0.0
2018-Jun-16 10:23N 26°03' W 080°07'0 0.0
2018-Jun-16 09:53N 26°03' W 080°07'0 0.0
2018-Jun-16 09:23N 26°03' W 080°07'0 0.0
2018-Jun-16 08:53N 26°03' W 080°07'0 0.0
2018-Jun-16 08:23N 26°03' W 080°07'0 0.0
2018-Jun-16 07:56N 26°03' W 080°07'0 0.0
2018-Jun-16 07:26N 26°03' W 080°07'0 0.0
2018-Jun-16 06:56N 26°03' W 080°07'0 0.0
2018-Jun-16 06:26N 26°03' W 080°07'0 0.0
2018-Jun-16 05:59N 26°03' W 080°07'0 0.0
2018-Jun-16 05:29N 26°03' W 080°07'0 0.0
2018-Jun-16 04:59N 26°03' W 080°07'0 0.0
2018-Jun-16 04:29N 26°03' W 080°07'0 0.0
2018-Jun-16 03:59N 26°03' W 080°07'0 0.0
2018-Jun-16 03:29N 26°03' W 080°07'0 0.0
2018-Jun-16 02:59N 26°03' W 080°07'0 0.0
2018-Jun-16 02:29N 26°03' W 080°07'0 0.0
2018-Jun-16 01:59N 26°03' W 080°07'0 0.0
2018-Jun-16 01:26N 26°03' W 080°07'0 0.0
2018-Jun-16 00:59N 26°03' W 080°07'0 0.0
2018-Jun-16 00:29N 26°03' W 080°07'0 0.0
2018-Jun-15 23:59N 26°03' W 080°07'0 0.0
2018-Jun-15 23:29N 26°03' W 080°07'0 0.0
2018-Jun-15 22:59N 26°03' W 080°07'0 0.0
2018-Jun-15 22:29N 26°03' W 080°07'0 0.0
2018-Jun-15 21:50N 26°03' W 080°07'0 0.0
2018-Jun-15 21:20N 26°03' W 080°07'0 0.0
2018-Jun-15 20:50N 26°03' W 080°07'0 0.0
2018-Jun-15 20:20N 26°03' W 080°07'0 0.0
2018-Jun-15 19:50N 26°03' W 080°07'0 0.0
2018-Jun-15 19:23N 26°03' W 080°07'0 0.0
2018-Jun-15 18:53N 26°03' W 080°07'0 0.0
2018-Jun-15 18:20N 26°03' W 080°07'0 0.0
2018-Jun-15 17:53N 26°03' W 080°07'0 0.0
2018-Jun-15 17:23N 26°03' W 080°07'0 0.0
2018-Jun-15 16:53N 26°03' W 080°07'0 0.0
2018-Jun-15 16:26N 26°03' W 080°07'0 0.0
2018-Jun-15 15:56N 26°03' W 080°07'0 0.0
2018-Jun-15 15:26N 26°03' W 080°07'0 0.0
2018-Jun-15 14:56N 26°03' W 080°07'0 0.0
2018-Jun-15 14:26N 26°03' W 080°07'0 0.0
2018-Jun-15 13:59N 26°03' W 080°07'0 0.0
2018-Jun-15 13:29N 26°03' W 080°07'0 0.0
2018-Jun-15 12:59N 26°03' W 080°07'0 0.1
2018-Jun-15 12:30N 26°03' W 080°07'2 3.8
2018-Jun-15 12:00N 26°05' W 080°07'2 3.9
2018-Jun-15 11:30N 26°05' W 080°05'3 5.0
2018-Jun-15 11:00N 26°03' W 080°04'2 4.7
2018-Jun-15 10:30N 26°00' W 080°05'2 4.8
2018-Jun-15 10:00N 25°58' W 080°05'3 5.9
2018-Jun-15 09:30N 25°55' W 080°05'3 5.8
2018-Jun-15 09:00N 25°52' W 080°05'3 6.0
2018-Jun-15 08:30N 25°49' W 080°05'3 6.3
2018-Jun-15 08:00N 25°46' W 080°05'3 6.4
2018-Jun-15 07:30N 25°43' W 080°05'3 6.5
2018-Jun-15 07:00N 25°40' W 080°05'3 6.3
2018-Jun-15 06:31N 25°36' W 080°05'4 6.7
2018-Jun-15 05:59N 25°33' W 080°05'  
Track history (hours):
 
Tides and Currents Weather Stations Pressure Air Temp Water Temp Dewpoint Dewpoint Depression Visibility Wind Speed Wind Dir Waves Ship Positions

Richard L Becker

Owner: VESSEL RECOVERY INC, Pompano Beach, FL. More information available from US FCC via Universal Licensing System and Coast Guard Vessel Documentation Center.

Last reported at 2018-Jun-22 19:59 UTC. Time now 2018-Jun-22 20:24 UTC.
Position N 26°03' W 080°07'.

Length 27 m; draft 3 m.

Type: Other ship. MMSI: 367390470.

Date/timePositionNaut miles runAvg speedWind from/ knotsBaromVisibWave heightAir tempDewpointWater temp
2018-Jun-22 19:59N 26°03' W 080°07'0 0.0
2018-Jun-22 19:29N 26°03' W 080°07'1 3.1
2018-Jun-22 19:00N 26°05' W 080°07'1 1.5
2018-Jun-22 18:30N 26°06' W 080°07'0 0.0
2018-Jun-22 18:00N 26°06' W 080°07'3 5.6
2018-Jun-22 17:30N 26°03' W 080°05'0 0.4
2018-Jun-22 17:00N 26°03' W 080°05'1 1.2
2018-Jun-22 16:30N 26°03' W 080°05'0 0.6
2018-Jun-22 16:00N 26°03' W 080°05'1 1.6
2018-Jun-22 15:30N 26°03' W 080°06'1 1.2
2018-Jun-22 15:00N 26°03' W 080°05'1 2.0
2018-Jun-22 14:30N 26°02' W 080°05'1 2.0
2018-Jun-22 13:59N 26°03' W 080°05'1 1.1
2018-Jun-22 13:30N 26°03' W 080°06'1 1.4
2018-Jun-22 12:56N 26°03' W 080°05'3 6.7
2018-Jun-22 12:30N 26°06' W 080°06'0 0.7
2018-Jun-22 11:57N 26°06' W 080°07'0 0.0
2018-Jun-22 11:30N 26°06' W 080°07'0 0.0
2018-Jun-22 11:00N 26°06' W 080°07'0 0.0
2018-Jun-22 10:30N 26°06' W 080°07'0 0.0
2018-Jun-22 10:00N 26°06' W 080°07'0 0.0
2018-Jun-22 09:30N 26°06' W 080°07'0 0.0
2018-Jun-22 09:00N 26°06' W 080°07'0 0.0
2018-Jun-22 08:18N 26°06' W 080°07'0 0.0
2018-Jun-22 07:51N 26°06' W 080°07'0 0.0
2018-Jun-22 07:30N 26°06' W 080°07'0 0.0
2018-Jun-22 07:00N 26°06' W 080°07'0 0.0
2018-Jun-22 06:21N 26°06' W 080°07'0 0.0
2018-Jun-22 05:51N 26°06' W 080°07'0 0.0
2018-Jun-22 05:21N 26°06' W 080°07'0 0.0
2018-Jun-22 04:51N 26°06' W 080°07'0 0.0
2018-Jun-22 04:24N 26°06' W 080°07'0 0.0
2018-Jun-22 03:54N 26°06' W 080°07'0 0.0
2018-Jun-22 03:24N 26°06' W 080°07'0 0.0
2018-Jun-22 02:54N 26°06' W 080°07'0 0.0
2018-Jun-22 02:24N 26°06' W 080°07'0 0.0
2018-Jun-22 01:51N 26°06' W 080°07'0 0.0
2018-Jun-22 01:27N 26°06' W 080°07'0 0.0
2018-Jun-22 00:57N 26°06' W 080°07'0 0.0
2018-Jun-22 00:27N 26°06' W 080°07'0 0.0
2018-Jun-21 23:57N 26°06' W 080°07'0 0.0
2018-Jun-21 23:27N 26°06' W 080°07'0 0.0
2018-Jun-21 23:00N 26°06' W 080°07'0 0.0
2018-Jun-21 22:30N 26°06' W 080°07'0 0.0
2018-Jun-21 21:54N 26°06' W 080°07'0 0.0
2018-Jun-21 21:30N 26°06' W 080°07'0 0.0
2018-Jun-21 20:57N 26°06' W 080°07'0 0.0
2018-Jun-21 20:30N 26°06' W 080°07'0 0.0
2018-Jun-21 19:57N 26°06' W 080°07'2 3.9
2018-Jun-21 19:31N 26°04' W 080°05'1 2.6
2018-Jun-21 19:01N 26°03' W 080°05'0 0.9
2018-Jun-21 18:30N 26°03' W 080°05'0 0.3
2018-Jun-21 18:00N 26°03' W 080°05'0 0.9
2018-Jun-21 17:30N 26°03' W 080°05'0 0.9
2018-Jun-21 17:00N 26°03' W 080°05'0 0.7
2018-Jun-21 16:30N 26°03' W 080°05'0 0.8
2018-Jun-21 16:00N 26°03' W 080°05'0 0.3
2018-Jun-21 15:30N 26°03' W 080°05'0 0.9
2018-Jun-21 15:00N 26°04' W 080°04'0 0.5
2018-Jun-21 14:30N 26°03' W 080°04'1 1.9
2018-Jun-21 14:00N 26°03' W 080°05'0 0.4
2018-Jun-21 13:30N 26°03' W 080°05'0 0.3
2018-Jun-21 13:00N 26°03' W 080°05'0 0.2
2018-Jun-21 12:30N 26°03' W 080°05'3 4.5
2018-Jun-21 11:49N 26°06' W 080°07'0 0.0
2018-Jun-21 11:26N 26°06' W 080°07'0 0.0
2018-Jun-21 10:55N 26°06' W 080°07'0 0.0
2018-Jun-21 10:25N 26°06' W 080°07'0 0.0
2018-Jun-21 09:56N 26°06' W 080°07'0 0.0
2018-Jun-21 09:22N 26°06' W 080°07'0 0.0
2018-Jun-21 08:52N 26°06' W 080°07'0 0.0
2018-Jun-21 08:29N 26°06' W 080°07'0 0.0
2018-Jun-21 07:58N 26°06' W 080°07'0 0.0
2018-Jun-21 07:28N 26°06' W 080°07'0 0.0
2018-Jun-21 06:55N 26°06' W 080°07'0 0.0
2018-Jun-21 06:28N 26°06' W 080°07'0 0.0
2018-Jun-21 05:55N 26°06' W 080°07'0 0.0
2018-Jun-21 05:28N 26°06' W 080°07'0 0.0
2018-Jun-21 04:58N 26°06' W 080°07'0 0.0
2018-Jun-21 04:29N 26°06' W 080°07'0 0.0
2018-Jun-21 03:58N 26°06' W 080°07'0 0.0
2018-Jun-21 03:29N 26°06' W 080°07'0 0.0
2018-Jun-21 02:58N 26°06' W 080°07'0 0.0
2018-Jun-21 02:28N 26°06' W 080°07'0 0.0
2018-Jun-21 01:49N 26°06' W 080°07'0 0.0
2018-Jun-21 01:19N 26°06' W 080°07'0 0.0
2018-Jun-21 00:58N 26°06' W 080°07'0 0.0
2018-Jun-21 00:19N 26°06' W 080°07'0 0.0
2018-Jun-20 23:46N 26°06' W 080°07'0 0.0
2018-Jun-20 23:23N 26°06' W 080°07'0 0.0
2018-Jun-20 22:52N 26°06' W 080°07'0 0.0
2018-Jun-20 22:22N 26°06' W 080°07'0 0.0
2018-Jun-20 21:52N 26°06' W 080°07'0 0.0
2018-Jun-20 21:22N 26°06' W 080°07'0 0.0
2018-Jun-20 20:52N 26°06' W 080°07'0 0.0
2018-Jun-20 20:22N 26°06' W 080°07'0 0.0
2018-Jun-20 19:55N 26°06' W 080°07'0 0.0
2018-Jun-20 19:22N 26°06' W 080°07'0 0.0
2018-Jun-20 18:52N 26°06' W 080°07'0 0.0
2018-Jun-20 18:28N 26°06' W 080°07'1 1.9
2018-Jun-20 18:00N 26°05' W 080°06'3 5.9
2018-Jun-20 17:31N 26°03' W 080°06'1 1.0
2018-Jun-20 17:00N 26°03' W 080°05'1 1.3
2018-Jun-20 16:31N 26°04' W 080°05'1 2.1
2018-Jun-20 16:00N 26°03' W 080°05'1 1.2
2018-Jun-20 15:31N 26°02' W 080°05'0 0.8
2018-Jun-20 15:00N 26°02' W 080°05'1 1.4
2018-Jun-20 14:30N 26°03' W 080°05'1 1.2
2018-Jun-20 14:00N 26°04' W 080°05'0 0.7
2018-Jun-20 13:30N 26°03' W 080°05'0 0.5
2018-Jun-20 13:00N 26°03' W 080°05'2 3.7
2018-Jun-20 12:30N 26°05' W 080°05'2 3.4
2018-Jun-20 11:58N 26°06' W 080°07'0 0.0
2018-Jun-20 11:30N 26°06' W 080°07'0 0.0
2018-Jun-20 11:00N 26°06' W 080°07'0 0.0
2018-Jun-20 10:30N 26°06' W 080°07'0 0.0
2018-Jun-20 10:00N 26°06' W 080°07'0 0.0
2018-Jun-20 09:30N 26°06' W 080°07'0 0.0
2018-Jun-20 08:59N 26°06' W 080°07'0 0.0
2018-Jun-20 08:30N 26°06' W 080°07'0 0.0
2018-Jun-20 08:00N 26°06' W 080°07'0 0.0
2018-Jun-20 07:30N 26°06' W 080°07'0 0.0
2018-Jun-20 07:00N 26°06' W 080°07'0 0.0
2018-Jun-20 06:30N 26°06' W 080°07'0 0.0
2018-Jun-20 06:00N 26°06' W 080°07'0 0.0
2018-Jun-20 05:30N 26°06' W 080°07'0 0.0
2018-Jun-20 05:00N 26°06' W 080°07'0 0.0
2018-Jun-20 04:30N 26°06' W 080°07'0 0.0
2018-Jun-20 04:00N 26°06' W 080°07'0 0.0
2018-Jun-20 03:30N 26°06' W 080°07'0 0.0
2018-Jun-20 02:59N 26°06' W 080°07'0 0.0
2018-Jun-20 02:30N 26°06' W 080°07'0 0.0
2018-Jun-20 02:00N 26°06' W 080°07'0 0.0
2018-Jun-20 01:30N 26°06' W 080°07'0 0.0
2018-Jun-20 01:00N 26°06' W 080°07'0 0.0
2018-Jun-20 00:30N 26°06' W 080°07'0 0.0
2018-Jun-20 00:00N 26°06' W 080°07'0 0.0
2018-Jun-19 23:30N 26°06' W 080°07'0 0.0
2018-Jun-19 23:00N 26°06' W 080°07'0 0.0
2018-Jun-19 22:29N 26°06' W 080°07'0 0.0
2018-Jun-19 22:00N 26°06' W 080°07'0 0.0
2018-Jun-19 21:28N 26°06' W 080°07'0 0.0
2018-Jun-19 21:00N 26°06' W 080°07'0 0.0
2018-Jun-19 20:30N 26°06' W 080°07'2 4.0
2018-Jun-19 20:00N 26°04' W 080°05'1 2.4
2018-Jun-19 19:30N 26°03' W 080°05'1 1.3
2018-Jun-19 19:00N 26°03' W 080°05'2 3.2
2018-Jun-19 18:31N 26°02' W 080°05'1 1.6
2018-Jun-19 18:00N 26°03' W 080°05'1 1.6
2018-Jun-19 17:31N 26°04' W 080°05'1 1.8
2018-Jun-19 16:59N 26°03' W 080°05'1 1.1
2018-Jun-19 16:30N 26°02' W 080°05'1 1.5
2018-Jun-19 16:00N 26°03' W 080°05'0 0.1
2018-Jun-19 15:31N 26°03' W 080°05'0 0.1
2018-Jun-19 14:59N 26°03' W 080°05'0 0.3
2018-Jun-19 14:30N 26°03' W 080°05'0 0.3
2018-Jun-19 13:59N 26°03' W 080°05'0 0.2
2018-Jun-19 13:30N 26°03' W 080°05'0 0.5
2018-Jun-19 13:00N 26°03' W 080°05'1 2.9
2018-Jun-19 12:30N 26°04' W 080°05'2 3.8
2018-Jun-19 12:00N 26°06' W 080°07'0 0.0
2018-Jun-19 11:21N 26°06' W 080°07'0 0.0
2018-Jun-19 11:00N 26°06' W 080°07'0 0.0
2018-Jun-19 10:30N 26°06' W 080°07'0 0.0
2018-Jun-19 09:51N 26°06' W 080°07'0 0.0
2018-Jun-19 09:21N 26°06' W 080°07'0 0.0
2018-Jun-19 08:54N 26°06' W 080°07'0 0.0
2018-Jun-19 08:24N 26°06' W 080°07'0 0.0
2018-Jun-19 07:54N 26°06' W 080°07'0 0.0
2018-Jun-19 07:24N 26°06' W 080°07'0 0.0
2018-Jun-19 06:54N 26°06' W 080°07'0 0.0
2018-Jun-19 06:06N 26°06' W 080°07'0 0.0
2018-Jun-19 05:51N 26°06' W 080°07'0 0.0
2018-Jun-19 05:27N 26°06' W 080°07'0 0.0
2018-Jun-19 04:57N 26°06' W 080°07'0 0.0
2018-Jun-19 04:27N 26°06' W 080°07'0 0.0
2018-Jun-19 03:54N 26°06' W 080°07'0 0.0
2018-Jun-19 03:24N 26°06' W 080°07'0 0.0
2018-Jun-19 02:57N 26°06' W 080°07'0 0.0
2018-Jun-19 02:27N 26°06' W 080°07'0 0.0
2018-Jun-19 02:00N 26°06' W 080°07'0 0.0
2018-Jun-19 01:30N 26°06' W 080°07'0 0.0
2018-Jun-19 01:00N 26°06' W 080°07'0 0.0
2018-Jun-19 00:30N 26°06' W 080°07'0 0.0
2018-Jun-19 00:00N 26°06' W 080°07'0 0.0
2018-Jun-18 23:27N 26°06' W 080°07'0 0.0
2018-Jun-18 23:00N 26°06' W 080°07'0 0.0
2018-Jun-18 22:30N 26°06' W 080°07'0 0.0
2018-Jun-18 22:00N 26°06' W 080°07'0 0.0
2018-Jun-18 21:30N 26°06' W 080°07'0 0.0
2018-Jun-18 21:00N 26°06' W 080°07'0 0.0
2018-Jun-18 20:30N 26°06' W 080°07'0 0.0
2018-Jun-18 19:48N 26°06' W 080°07'0 0.0
2018-Jun-18 19:30N 26°06' W 080°07'0 0.0
2018-Jun-18 18:51N 26°06' W 080°07'0 0.0
2018-Jun-18 18:21N 26°06' W 080°07'0 0.0
2018-Jun-18 17:51N 26°06' W 080°07'0 0.0
2018-Jun-18 17:24N 26°06' W 080°07'0 0.0
2018-Jun-18 16:54N 26°06' W 080°07'0 0.0
2018-Jun-18 16:24N 26°06' W 080°07'0 0.0
2018-Jun-18 15:54N 26°06' W 080°07'0 0.0
2018-Jun-18 15:27N 26°06' W 080°07'0 0.0
2018-Jun-18 14:57N 26°06' W 080°07'0 0.0
2018-Jun-18 14:27N 26°06' W 080°07'0 0.0
2018-Jun-18 13:54N 26°06' W 080°07'0 0.0
2018-Jun-18 13:27N 26°06' W 080°07'0 0.0
2018-Jun-18 12:57N 26°06' W 080°07'0 0.0
2018-Jun-18 12:27N 26°06' W 080°07'0 0.0
2018-Jun-18 11:57N 26°06' W 080°07'0 0.0
2018-Jun-18 11:24N 26°06' W 080°07'0 0.0
2018-Jun-18 11:00N 26°06' W 080°07'0 0.0
2018-Jun-18 10:30N 26°06' W 080°07'0 0.0
2018-Jun-18 10:00N 26°06' W 080°07'0 0.0
2018-Jun-18 09:30N 26°06' W 080°07'0 0.0
2018-Jun-18 08:45N 26°06' W 080°07'0 0.3
2018-Jun-18 08:31N 26°06' W 080°07'2 3.6
2018-Jun-18 07:53N 26°03' W 080°07'0 0.0
2018-Jun-18 07:23N 26°03' W 080°07'0 0.0
2018-Jun-18 06:53N 26°03' W 080°07'0 0.0
2018-Jun-18 06:20N 26°03' W 080°07'0 0.0
2018-Jun-18 05:53N 26°03' W 080°07'0 0.0
2018-Jun-18 05:26N 26°03' W 080°07'0 0.0
2018-Jun-18 04:53N 26°03' W 080°07'0 0.0
2018-Jun-18 04:26N 26°03' W 080°07'0 0.0
2018-Jun-18 03:56N 26°03' W 080°07'0 0.0
2018-Jun-18 03:26N 26°03' W 080°07'0 0.0
2018-Jun-18 02:53N 26°03' W 080°07'0 0.0
2018-Jun-18 02:26N 26°03' W 080°07'0 0.0
2018-Jun-18 01:44N 26°03' W 080°07'0 0.0
2018-Jun-18 01:29N 26°03' W 080°07'0 0.0
2018-Jun-18 00:59N 26°03' W 080°07'0 0.0
2018-Jun-18 00:29N 26°03' W 080°07'0 0.0
2018-Jun-17 23:59N 26°03' W 080°07'0 0.0
2018-Jun-17 23:29N 26°03' W 080°07'0 0.0
2018-Jun-17 22:59N 26°03' W 080°07'0 0.0
2018-Jun-17 22:29N 26°03' W 080°07'0 0.0
2018-Jun-17 21:59N 26°03' W 080°07'0 0.0
2018-Jun-17 21:29N 26°03' W 080°07'0 0.0
2018-Jun-17 20:59N 26°03' W 080°07'0 0.0
2018-Jun-17 20:29N 26°03' W 080°07'0 0.0
2018-Jun-17 19:50N 26°03' W 080°07'0 0.0
2018-Jun-17 19:29N 26°03' W 080°07'0 0.0
2018-Jun-17 18:59N 26°03' W 080°07'0 0.0
2018-Jun-17 18:20N 26°03' W 080°07'0 0.0
2018-Jun-17 17:59N 26°03' W 080°07'0 0.0
2018-Jun-17 17:20N 26°03' W 080°07'0 0.0
2018-Jun-17 16:53N 26°03' W 080°07'0 0.0
2018-Jun-17 16:23N 26°03' W 080°07'0 0.0
2018-Jun-17 15:53N 26°03' W 080°07'0 0.0
2018-Jun-17 15:23N 26°03' W 080°07'0 0.0
2018-Jun-17 14:53N 26°03' W 080°07'0 0.0
2018-Jun-17 14:23N 26°03' W 080°07'0 0.0
2018-Jun-17 13:56N 26°03' W 080°07'0 0.0
2018-Jun-17 13:26N 26°03' W 080°07'0 0.0
2018-Jun-17 12:56N 26°03' W 080°07'0 0.0
2018-Jun-17 12:23N 26°03' W 080°07'0 0.0
2018-Jun-17 11:56N 26°03' W 080°07'0 0.0
2018-Jun-17 11:26N 26°03' W 080°07'0 0.0
2018-Jun-17 10:56N 26°03' W 080°07'0 0.0
2018-Jun-17 10:29N 26°03' W 080°07'0 0.0
2018-Jun-17 09:59N 26°03' W 080°07'0 0.0
2018-Jun-17 09:26N 26°03' W 080°07'0 0.0
2018-Jun-17 08:59N 26°03' W 080°07'0 0.0
2018-Jun-17 08:29N 26°03' W 080°07'0 0.0
2018-Jun-17 07:56N 26°03' W 080°07'0 0.0
2018-Jun-17 07:29N 26°03' W 080°07'0 0.0
2018-Jun-17 06:59N 26°03' W 080°07'0 0.0
2018-Jun-17 06:29N 26°03' W 080°07'0 0.0
2018-Jun-17 05:59N 26°03' W 080°07'0 0.0
2018-Jun-17 05:29N 26°03' W 080°07'0 0.0
2018-Jun-17 04:59N 26°03' W 080°07'0 0.0
2018-Jun-17 04:29N 26°03' W 080°07'0 0.0
2018-Jun-17 03:59N 26°03' W 080°07'0 0.0
2018-Jun-17 03:29N 26°03' W 080°07'0 0.0
2018-Jun-17 02:59N 26°03' W 080°07'0 0.0
2018-Jun-17 02:20N 26°03' W 080°07'0 0.0
2018-Jun-17 01:50N 26°03' W 080°07'0 0.0
2018-Jun-17 01:23N 26°03' W 080°07'0 0.0
2018-Jun-17 00:53N 26°03' W 080°07'0 0.0
2018-Jun-17 00:23N 26°03' W 080°07'0 0.0
2018-Jun-16 23:53N 26°03' W 080°07'0 0.0
2018-Jun-16 23:23N 26°03' W 080°07'0 0.0
2018-Jun-16 22:53N 26°03' W 080°07'0 0.0
2018-Jun-16 22:26N 26°03' W 080°07'0 0.0
2018-Jun-16 21:56N 26°03' W 080°07'0 0.0
2018-Jun-16 21:26N 26°03' W 080°07'0 0.0
2018-Jun-16 20:56N 26°03' W 080°07'0 0.0
2018-Jun-16 20:26N 26°03' W 080°07'0 0.0
2018-Jun-16 19:56N 26°03' W 080°07'0 0.0
2018-Jun-16 19:29N 26°03' W 080°07'0 0.0
2018-Jun-16 18:59N 26°03' W 080°07'0 0.0
2018-Jun-16 18:29N 26°03' W 080°07'0 0.0
2018-Jun-16 17:59N 26°03' W 080°07'0 0.0
2018-Jun-16 17:29N 26°03' W 080°07'0 0.0
2018-Jun-16 16:56N 26°03' W 080°07'0 0.0
2018-Jun-16 16:29N 26°03' W 080°07'0 0.0
2018-Jun-16 15:59N 26°03' W 080°07'0 0.0
2018-Jun-16 15:29N 26°03' W 080°07'0 0.0
2018-Jun-16 14:59N 26°03' W 080°07'0 0.0
2018-Jun-16 14:29N 26°03' W 080°07'0 0.0
2018-Jun-16 13:59N 26°03' W 080°07'0 0.0
2018-Jun-16 13:29N 26°03' W 080°07'0 0.0
2018-Jun-16 12:59N 26°03' W 080°07'0 0.0
2018-Jun-16 12:20N 26°03' W 080°07'0 0.0
2018-Jun-16 11:50N 26°03' W 080°07'0 0.0
2018-Jun-16 11:20N 26°03' W 080°07'0 0.0
2018-Jun-16 10:53N 26°03' W 080°07'0 0.0
2018-Jun-16 10:23N 26°03' W 080°07'0 0.0
2018-Jun-16 09:53N 26°03' W 080°07'0 0.0
2018-Jun-16 09:23N 26°03' W 080°07'0 0.0
2018-Jun-16 08:53N 26°03' W 080°07'0 0.0
2018-Jun-16 08:23N 26°03' W 080°07'0 0.0
2018-Jun-16 07:56N 26°03' W 080°07'0 0.0
2018-Jun-16 07:26N 26°03' W 080°07'0 0.0
2018-Jun-16 06:56N 26°03' W 080°07'0 0.0
2018-Jun-16 06:26N 26°03' W 080°07'0 0.0
2018-Jun-16 05:59N 26°03' W 080°07'0 0.0
2018-Jun-16 05:29N 26°03' W 080°07'0 0.0
2018-Jun-16 04:59N 26°03' W 080°07'0 0.0
2018-Jun-16 04:29N 26°03' W 080°07'0 0.0
2018-Jun-16 03:59N 26°03' W 080°07'0 0.0
2018-Jun-16 03:29N 26°03' W 080°07'0 0.0
2018-Jun-16 02:59N 26°03' W 080°07'0 0.0
2018-Jun-16 02:29N 26°03' W 080°07'0 0.0
2018-Jun-16 01:59N 26°03' W 080°07'0 0.0
2018-Jun-16 01:26N 26°03' W 080°07'0 0.0
2018-Jun-16 00:59N 26°03' W 080°07'0 0.0
2018-Jun-16 00:29N 26°03' W 080°07'0 0.0
2018-Jun-15 23:59N 26°03' W 080°07'0 0.0
2018-Jun-15 23:29N 26°03' W 080°07'0 0.0
2018-Jun-15 22:59N 26°03' W 080°07'0 0.0
2018-Jun-15 22:29N 26°03' W 080°07'0 0.0
2018-Jun-15 21:50N 26°03' W 080°07'0 0.0
2018-Jun-15 21:20N 26°03' W 080°07'0 0.0
2018-Jun-15 20:50N 26°03' W 080°07'0 0.0
2018-Jun-15 20:20N 26°03' W 080°07'0 0.0
2018-Jun-15 19:50N 26°03' W 080°07'0 0.0
2018-Jun-15 19:23N 26°03' W 080°07'0 0.0
2018-Jun-15 18:53N 26°03' W 080°07'0 0.0
2018-Jun-15 18:20N 26°03' W 080°07'0 0.0
2018-Jun-15 17:53N 26°03' W 080°07'0 0.0
2018-Jun-15 17:23N 26°03' W 080°07'0 0.0
2018-Jun-15 16:53N 26°03' W 080°07'0 0.0
2018-Jun-15 16:26N 26°03' W 080°07'0 0.0
2018-Jun-15 15:56N 26°03' W 080°07'0 0.0
2018-Jun-15 15:26N 26°03' W 080°07'0 0.0
2018-Jun-15 14:56N 26°03' W 080°07'0 0.0
2018-Jun-15 14:26N 26°03' W 080°07'0 0.0
2018-Jun-15 13:59N 26°03' W 080°07'0 0.0
2018-Jun-15 13:29N 26°03' W 080°07'0 0.0
2018-Jun-15 12:59N 26°03' W 080°07'0 0.1
2018-Jun-15 12:30N 26°03' W 080°07'2 3.8
2018-Jun-15 12:00N 26°05' W 080°07'2 3.9
2018-Jun-15 11:30N 26°05' W 080°05'3 5.0
2018-Jun-15 11:00N 26°03' W 080°04'2 4.7
2018-Jun-15 10:30N 26°00' W 080°05'2 4.8
2018-Jun-15 10:00N 25°58' W 080°05'3 5.9
2018-Jun-15 09:30N 25°55' W 080°05'3 5.8
2018-Jun-15 09:00N 25°52' W 080°05'3 6.0
2018-Jun-15 08:30N 25°49' W 080°05'3 6.3
2018-Jun-15 08:00N 25°46' W 080°05'3 6.4
2018-Jun-15 07:30N 25°43' W 080°05'3 6.5
2018-Jun-15 07:00N 25°40' W 080°05'3 6.3
2018-Jun-15 06:31N 25°36' W 080°05'4 6.7
2018-Jun-15 05:59N 25°33' W 080°05'  

Dump ship's entire track history